sensor_id;sensor_type;location;lat;lon;timestamp;P1;durP1;ratioP1;P2;durP2;ratioP2
6821;SDS011;3449;48.728;8.968;2023-04-22T00:01:08;5.13;;;3.47;;
6821;SDS011;3449;48.728;8.968;2023-04-22T00:03:34;4.07;;;3.30;;
6821;SDS011;3449;48.728;8.968;2023-04-22T00:06:02;3.73;;;2.60;;
6821;SDS011;3449;48.728;8.968;2023-04-22T00:08:29;3.53;;;3.00;;
6821;SDS011;3449;48.728;8.968;2023-04-22T00:10:58;3.60;;;2.90;;
6821;SDS011;3449;48.728;8.968;2023-04-22T00:13:25;7.03;;;3.13;;
6821;SDS011;3449;48.728;8.968;2023-04-22T00:15:51;5.27;;;3.30;;
6821;SDS011;3449;48.728;8.968;2023-04-22T00:18:18;4.90;;;3.90;;
6821;SDS011;3449;48.728;8.968;2023-04-22T00:20:45;3.23;;;2.93;;
6821;SDS011;3449;48.728;8.968;2023-04-22T00:23:12;7.43;;;3.57;;
6821;SDS011;3449;48.728;8.968;2023-04-22T00:25:39;5.70;;;2.97;;
6821;SDS011;3449;48.728;8.968;2023-04-22T00:28:07;4.50;;;3.00;;
6821;SDS011;3449;48.728;8.968;2023-04-22T00:30:35;6.90;;;3.37;;
6821;SDS011;3449;48.728;8.968;2023-04-22T00:33:02;4.37;;;3.47;;
6821;SDS011;3449;48.728;8.968;2023-04-22T00:35:29;4.20;;;3.07;;
6821;SDS011;3449;48.728;8.968;2023-04-22T00:37:56;3.67;;;2.97;;
6821;SDS011;3449;48.728;8.968;2023-04-22T00:40:22;6.27;;;3.43;;
6821;SDS011;3449;48.728;8.968;2023-04-22T00:42:49;4.93;;;3.80;;
6821;SDS011;3449;48.728;8.968;2023-04-22T00:45:18;4.00;;;3.10;;
6821;SDS011;3449;48.728;8.968;2023-04-22T00:47:45;6.33;;;3.57;;
6821;SDS011;3449;48.728;8.968;2023-04-22T00:50:13;5.20;;;3.60;;
6821;SDS011;3449;48.728;8.968;2023-04-22T00:52:40;5.37;;;3.63;;
6821;SDS011;3449;48.728;8.968;2023-04-22T00:55:07;5.10;;;3.63;;
6821;SDS011;3449;48.728;8.968;2023-04-22T00:57:34;4.97;;;3.70;;
6821;SDS011;3449;48.728;8.968;2023-04-22T01:00:02;4.17;;;3.77;;
6821;SDS011;3449;48.728;8.968;2023-04-22T01:02:31;5.00;;;4.27;;
6821;SDS011;3449;48.728;8.968;2023-04-22T01:04:58;7.53;;;3.80;;
6821;SDS011;3449;48.728;8.968;2023-04-22T01:07:25;7.10;;;3.70;;
6821;SDS011;3449;48.728;8.968;2023-04-22T01:09:52;5.27;;;4.30;;
6821;SDS011;3449;48.728;8.968;2023-04-22T01:12:19;10.90;;;4.00;;
6821;SDS011;3449;48.728;8.968;2023-04-22T01:14:46;6.77;;;3.37;;
6821;SDS011;3449;48.728;8.968;2023-04-22T01:17:13;4.77;;;3.27;;
6821;SDS011;3449;48.728;8.968;2023-04-22T01:19:44;8.23;;;3.30;;
6821;SDS011;3449;48.728;8.968;2023-04-22T01:22:12;8.23;;;4.00;;
6821;SDS011;3449;48.728;8.968;2023-04-22T01:24:40;7.27;;;3.30;;
6821;SDS011;3449;48.728;8.968;2023-04-22T01:27:07;6.70;;;3.90;;
6821;SDS011;3449;48.728;8.968;2023-04-22T01:29:35;6.23;;;3.87;;
6821;SDS011;3449;48.728;8.968;2023-04-22T01:32:03;8.27;;;4.13;;
6821;SDS011;3449;48.728;8.968;2023-04-22T01:34:30;3.43;;;3.13;;
6821;SDS011;3449;48.728;8.968;2023-04-22T01:36:57;6.07;;;4.40;;
6821;SDS011;3449;48.728;8.968;2023-04-22T01:39:24;5.00;;;3.50;;
6821;SDS011;3449;48.728;8.968;2023-04-22T01:41:53;4.93;;;3.07;;
6821;SDS011;3449;48.728;8.968;2023-04-22T01:44:20;3.80;;;3.27;;
6821;SDS011;3449;48.728;8.968;2023-04-22T01:46:47;7.37;;;3.63;;
6821;SDS011;3449;48.728;8.968;2023-04-22T01:49:14;4.27;;;3.10;;
6821;SDS011;3449;48.728;8.968;2023-04-22T01:51:41;4.57;;;3.53;;
6821;SDS011;3449;48.728;8.968;2023-04-22T01:54:08;4.67;;;3.60;;
6821;SDS011;3449;48.728;8.968;2023-04-22T01:56:36;5.70;;;3.53;;
6821;SDS011;3449;48.728;8.968;2023-04-22T01:59:05;6.00;;;3.00;;
6821;SDS011;3449;48.728;8.968;2023-04-22T02:01:32;4.20;;;3.23;;
6821;SDS011;3449;48.728;8.968;2023-04-22T02:03:59;5.40;;;2.70;;
6821;SDS011;3449;48.728;8.968;2023-04-22T02:06:26;3.37;;;3.07;;
6821;SDS011;3449;48.728;8.968;2023-04-22T02:08:53;3.43;;;3.00;;
6821;SDS011;3449;48.728;8.968;2023-04-22T02:11:20;3.53;;;2.70;;
6821;SDS011;3449;48.728;8.968;2023-04-22T02:13:47;5.83;;;3.40;;
6821;SDS011;3449;48.728;8.968;2023-04-22T02:16:16;5.50;;;3.33;;
6821;SDS011;3449;48.728;8.968;2023-04-22T02:18:43;4.30;;;3.60;;
6821;SDS011;3449;48.728;8.968;2023-04-22T02:21:10;5.90;;;3.40;;
6821;SDS011;3449;48.728;8.968;2023-04-22T02:23:36;6.03;;;3.97;;
6821;SDS011;3449;48.728;8.968;2023-04-22T02:26:04;4.63;;;3.50;;
6821;SDS011;3449;48.728;8.968;2023-04-22T02:28:31;4.40;;;3.60;;
6821;SDS011;3449;48.728;8.968;2023-04-22T02:30:58;4.00;;;3.53;;
6821;SDS011;3449;48.728;8.968;2023-04-22T02:33:26;3.57;;;3.27;;
6821;SDS011;3449;48.728;8.968;2023-04-22T02:35:53;5.73;;;3.10;;
6821;SDS011;3449;48.728;8.968;2023-04-22T02:38:20;5.53;;;3.43;;
6821;SDS011;3449;48.728;8.968;2023-04-22T02:40:47;4.50;;;3.97;;
6821;SDS011;3449;48.728;8.968;2023-04-22T02:43:13;5.50;;;3.47;;
6821;SDS011;3449;48.728;8.968;2023-04-22T02:45:40;4.13;;;2.90;;
6821;SDS011;3449;48.728;8.968;2023-04-22T02:48:07;5.70;;;3.73;;
6821;SDS011;3449;48.728;8.968;2023-04-22T02:50:35;6.30;;;4.00;;
6821;SDS011;3449;48.728;8.968;2023-04-22T02:53:02;4.57;;;3.40;;
6821;SDS011;3449;48.728;8.968;2023-04-22T02:55:29;6.33;;;3.57;;
6821;SDS011;3449;48.728;8.968;2023-04-22T02:57:56;5.53;;;3.33;;
6821;SDS011;3449;48.728;8.968;2023-04-22T03:00:23;5.70;;;3.50;;
6821;SDS011;3449;48.728;8.968;2023-04-22T03:02:49;5.40;;;3.80;;
6821;SDS011;3449;48.728;8.968;2023-04-22T03:05:16;5.47;;;3.40;;
6821;SDS011;3449;48.728;8.968;2023-04-22T03:07:45;4.40;;;3.27;;
6821;SDS011;3449;48.728;8.968;2023-04-22T03:10:13;3.83;;;2.87;;
6821;SDS011;3449;48.728;8.968;2023-04-22T03:12:40;3.73;;;3.10;;
6821;SDS011;3449;48.728;8.968;2023-04-22T03:15:07;8.33;;;3.90;;
6821;SDS011;3449;48.728;8.968;2023-04-22T03:17:34;7.90;;;3.57;;
6821;SDS011;3449;48.728;8.968;2023-04-22T03:20:01;5.30;;;3.70;;
6821;SDS011;3449;48.728;8.968;2023-04-22T03:22:28;4.80;;;3.30;;
6821;SDS011;3449;48.728;8.968;2023-04-22T03:24:57;5.70;;;3.30;;
6821;SDS011;3449;48.728;8.968;2023-04-22T03:27:23;4.43;;;3.30;;
6821;SDS011;3449;48.728;8.968;2023-04-22T03:29:50;4.07;;;3.50;;
6821;SDS011;3449;48.728;8.968;2023-04-22T03:32:17;7.93;;;3.40;;
6821;SDS011;3449;48.728;8.968;2023-04-22T03:34:44;6.70;;;3.80;;
6821;SDS011;3449;48.728;8.968;2023-04-22T03:37:11;3.50;;;3.17;;
6821;SDS011;3449;48.728;8.968;2023-04-22T03:39:38;6.97;;;3.13;;
6821;SDS011;3449;48.728;8.968;2023-04-22T03:42:06;4.20;;;3.17;;
6821;SDS011;3449;48.728;8.968;2023-04-22T03:44:33;6.17;;;3.40;;
6821;SDS011;3449;48.728;8.968;2023-04-22T03:47:00;5.77;;;2.83;;
6821;SDS011;3449;48.728;8.968;2023-04-22T03:49:27;3.83;;;3.30;;
6821;SDS011;3449;48.728;8.968;2023-04-22T03:51:54;3.87;;;3.47;;
6821;SDS011;3449;48.728;8.968;2023-04-22T03:54:21;4.50;;;3.10;;
6821;SDS011;3449;48.728;8.968;2023-04-22T03:56:47;2.90;;;2.70;;
6821;SDS011;3449;48.728;8.968;2023-04-22T03:59:16;7.20;;;3.80;;
6821;SDS011;3449;48.728;8.968;2023-04-22T04:01:45;4.70;;;2.87;;
6821;SDS011;3449;48.728;8.968;2023-04-22T04:04:12;3.80;;;3.37;;
6821;SDS011;3449;48.728;8.968;2023-04-22T04:06:38;3.87;;;3.23;;
6821;SDS011;3449;48.728;8.968;2023-04-22T04:09:05;8.90;;;3.33;;
6821;SDS011;3449;48.728;8.968;2023-04-22T04:11:32;3.80;;;3.23;;
6821;SDS011;3449;48.728;8.968;2023-04-22T04:13:59;4.83;;;3.77;;
6821;SDS011;3449;48.728;8.968;2023-04-22T04:16:28;4.30;;;3.50;;
6821;SDS011;3449;48.728;8.968;2023-04-22T04:18:55;10.13;;;3.90;;
6821;SDS011;3449;48.728;8.968;2023-04-22T04:21:22;5.10;;;3.10;;
6821;SDS011;3449;48.728;8.968;2023-04-22T04:23:51;10.13;;;3.93;;
6821;SDS011;3449;48.728;8.968;2023-04-22T04:26:18;6.80;;;3.83;;
6821;SDS011;3449;48.728;8.968;2023-04-22T04:28:45;8.63;;;3.00;;
6821;SDS011;3449;48.728;8.968;2023-04-22T04:31:13;5.33;;;3.27;;
6821;SDS011;3449;48.728;8.968;2023-04-22T04:33:41;4.67;;;3.33;;
6821;SDS011;3449;48.728;8.968;2023-04-22T04:36:08;5.10;;;3.57;;
6821;SDS011;3449;48.728;8.968;2023-04-22T04:38:35;4.30;;;3.13;;
6821;SDS011;3449;48.728;8.968;2023-04-22T04:41:02;4.33;;;3.50;;
6821;SDS011;3449;48.728;8.968;2023-04-22T04:43:29;5.50;;;3.27;;
6821;SDS011;3449;48.728;8.968;2023-04-22T04:45:56;5.23;;;3.60;;
6821;SDS011;3449;48.728;8.968;2023-04-22T04:48:23;3.80;;;2.93;;
6821;SDS011;3449;48.728;8.968;2023-04-22T04:50:52;6.40;;;3.80;;
6821;SDS011;3449;48.728;8.968;2023-04-22T04:53:19;3.73;;;3.30;;
6821;SDS011;3449;48.728;8.968;2023-04-22T04:55:46;5.80;;;3.67;;
6821;SDS011;3449;48.728;8.968;2023-04-22T04:58:13;3.10;;;2.80;;
6821;SDS011;3449;48.728;8.968;2023-04-22T05:00:40;4.00;;;2.80;;
6821;SDS011;3449;48.728;8.968;2023-04-22T05:03:07;5.30;;;3.40;;
6821;SDS011;3449;48.728;8.968;2023-04-22T05:05:34;4.43;;;3.30;;
6821;SDS011;3449;48.728;8.968;2023-04-22T05:08:02;8.43;;;3.20;;
6821;SDS011;3449;48.728;8.968;2023-04-22T05:10:29;5.83;;;3.00;;
6821;SDS011;3449;48.728;8.968;2023-04-22T05:12:56;5.17;;;3.50;;
6821;SDS011;3449;48.728;8.968;2023-04-22T05:15:23;4.87;;;4.10;;
6821;SDS011;3449;48.728;8.968;2023-04-22T05:17:50;3.20;;;2.90;;
6821;SDS011;3449;48.728;8.968;2023-04-22T05:20:17;4.57;;;3.60;;
6821;SDS011;3449;48.728;8.968;2023-04-22T05:22:43;4.57;;;3.03;;
6821;SDS011;3449;48.728;8.968;2023-04-22T05:25:12;5.00;;;3.10;;
6821;SDS011;3449;48.728;8.968;2023-04-22T05:27:39;3.30;;;3.00;;
6821;SDS011;3449;48.728;8.968;2023-04-22T05:30:06;3.63;;;3.27;;
6821;SDS011;3449;48.728;8.968;2023-04-22T05:32:34;3.53;;;3.20;;
6821;SDS011;3449;48.728;8.968;2023-04-22T05:35:01;3.57;;;3.00;;
6821;SDS011;3449;48.728;8.968;2023-04-22T05:37:28;6.90;;;2.93;;
6821;SDS011;3449;48.728;8.968;2023-04-22T05:39:55;2.90;;;2.60;;
6821;SDS011;3449;48.728;8.968;2023-04-22T05:42:23;9.10;;;4.20;;
6821;SDS011;3449;48.728;8.968;2023-04-22T05:44:50;4.90;;;3.10;;
6821;SDS011;3449;48.728;8.968;2023-04-22T05:47:17;3.80;;;3.20;;
6821;SDS011;3449;48.728;8.968;2023-04-22T05:49:44;4.40;;;3.20;;
6821;SDS011;3449;48.728;8.968;2023-04-22T05:52:10;3.27;;;2.97;;
6821;SDS011;3449;48.728;8.968;2023-04-22T05:54:37;3.67;;;2.97;;
6821;SDS011;3449;48.728;8.968;2023-04-22T05:57:04;4.83;;;3.00;;
6821;SDS011;3449;48.728;8.968;2023-04-22T05:59:33;8.43;;;3.20;;
6821;SDS011;3449;48.728;8.968;2023-04-22T06:02:00;4.90;;;3.47;;
6821;SDS011;3449;48.728;8.968;2023-04-22T06:04:27;5.57;;;3.50;;
6821;SDS011;3449;48.728;8.968;2023-04-22T06:06:54;11.03;;;2.97;;
6821;SDS011;3449;48.728;8.968;2023-04-22T06:09:21;4.47;;;2.70;;
6821;SDS011;3449;48.728;8.968;2023-04-22T06:11:48;4.90;;;3.33;;
6821;SDS011;3449;48.728;8.968;2023-04-22T06:14:15;4.23;;;3.20;;
6821;SDS011;3449;48.728;8.968;2023-04-22T06:16:43;6.10;;;3.40;;
6821;SDS011;3449;48.728;8.968;2023-04-22T06:19:10;6.00;;;3.00;;
6821;SDS011;3449;48.728;8.968;2023-04-22T06:21:37;3.40;;;2.70;;
6821;SDS011;3449;48.728;8.968;2023-04-22T06:24:06;3.67;;;3.27;;
6821;SDS011;3449;48.728;8.968;2023-04-22T06:26:34;6.27;;;3.57;;
6821;SDS011;3449;48.728;8.968;2023-04-22T06:29:01;4.10;;;3.70;;
6821;SDS011;3449;48.728;8.968;2023-04-22T06:31:29;5.07;;;3.90;;
6821;SDS011;3449;48.728;8.968;2023-04-22T06:33:57;6.70;;;4.10;;
6821;SDS011;3449;48.728;8.968;2023-04-22T06:36:24;6.07;;;3.87;;
6821;SDS011;3449;48.728;8.968;2023-04-22T06:38:51;4.80;;;3.53;;
6821;SDS011;3449;48.728;8.968;2023-04-22T06:41:19;5.40;;;4.07;;
6821;SDS011;3449;48.728;8.968;2023-04-22T06:43:46;6.77;;;4.13;;
6821;SDS011;3449;48.728;8.968;2023-04-22T06:46:14;7.20;;;3.90;;
6821;SDS011;3449;48.728;8.968;2023-04-22T06:48:41;5.13;;;3.57;;
6821;SDS011;3449;48.728;8.968;2023-04-22T06:51:10;5.90;;;4.30;;
6821;SDS011;3449;48.728;8.968;2023-04-22T06:53:37;5.80;;;4.13;;
6821;SDS011;3449;48.728;8.968;2023-04-22T06:56:04;5.57;;;4.17;;
6821;SDS011;3449;48.728;8.968;2023-04-22T06:58:31;6.37;;;4.00;;
6821;SDS011;3449;48.728;8.968;2023-04-22T07:00:58;6.90;;;3.97;;
6821;SDS011;3449;48.728;8.968;2023-04-22T07:03:25;5.70;;;4.33;;
6821;SDS011;3449;48.728;8.968;2023-04-22T07:05:52;3.90;;;3.50;;
6821;SDS011;3449;48.728;8.968;2023-04-22T07:08:20;6.07;;;4.10;;
6821;SDS011;3449;48.728;8.968;2023-04-22T07:10:47;5.20;;;4.17;;
6821;SDS011;3449;48.728;8.968;2023-04-22T07:13:13;7.00;;;4.80;;
6821;SDS011;3449;48.728;8.968;2023-04-22T07:15:40;5.73;;;4.23;;
6821;SDS011;3449;48.728;8.968;2023-04-22T07:18:07;5.70;;;3.77;;
6821;SDS011;3449;48.728;8.968;2023-04-22T07:20:35;9.97;;;4.07;;
6821;SDS011;3449;48.728;8.968;2023-04-22T07:23:01;6.70;;;4.03;;
6821;SDS011;3449;48.728;8.968;2023-04-22T07:25:30;6.20;;;4.33;;
6821;SDS011;3449;48.728;8.968;2023-04-22T07:27:56;5.67;;;3.80;;
6821;SDS011;3449;48.728;8.968;2023-04-22T07:30:23;7.67;;;4.10;;
6821;SDS011;3449;48.728;8.968;2023-04-22T07:32:50;8.03;;;4.50;;
6821;SDS011;3449;48.728;8.968;2023-04-22T07:35:17;6.37;;;4.57;;
6821;SDS011;3449;48.728;8.968;2023-04-22T07:37:44;5.00;;;4.50;;
6821;SDS011;3449;48.728;8.968;2023-04-22T07:40:11;4.70;;;3.50;;
6821;SDS011;3449;48.728;8.968;2023-04-22T07:42:39;5.17;;;3.47;;
6821;SDS011;3449;48.728;8.968;2023-04-22T07:45:06;8.13;;;3.80;;
6821;SDS011;3449;48.728;8.968;2023-04-22T07:47:33;6.27;;;4.37;;
6821;SDS011;3449;48.728;8.968;2023-04-22T07:50:00;7.40;;;4.40;;
6821;SDS011;3449;48.728;8.968;2023-04-22T07:52:27;6.07;;;4.60;;
6821;SDS011;3449;48.728;8.968;2023-04-22T07:54:55;7.07;;;4.80;;
6821;SDS011;3449;48.728;8.968;2023-04-22T07:57:21;8.57;;;5.10;;
6821;SDS011;3449;48.728;8.968;2023-04-22T07:59:50;9.67;;;5.50;;
6821;SDS011;3449;48.728;8.968;2023-04-22T08:02:17;8.67;;;5.37;;
6821;SDS011;3449;48.728;8.968;2023-04-22T08:04:44;9.80;;;5.40;;
6821;SDS011;3449;48.728;8.968;2023-04-22T08:07:11;10.30;;;5.60;;
6821;SDS011;3449;48.728;8.968;2023-04-22T08:09:39;9.13;;;4.40;;
6821;SDS011;3449;48.728;8.968;2023-04-22T08:12:06;9.07;;;5.00;;
6821;SDS011;3449;48.728;8.968;2023-04-22T08:14:33;6.37;;;3.87;;
6821;SDS011;3449;48.728;8.968;2023-04-22T08:17:01;8.47;;;4.97;;
6821;SDS011;3449;48.728;8.968;2023-04-22T08:19:28;7.23;;;4.87;;
6821;SDS011;3449;48.728;8.968;2023-04-22T08:21:55;5.77;;;3.50;;
6821;SDS011;3449;48.728;8.968;2023-04-22T08:24:22;5.40;;;4.10;;
6821;SDS011;3449;48.728;8.968;2023-04-22T08:26:49;8.63;;;4.10;;
6821;SDS011;3449;48.728;8.968;2023-04-22T08:29:16;4.37;;;3.13;;
6821;SDS011;3449;48.728;8.968;2023-04-22T08:31:43;2.87;;;2.60;;
6821;SDS011;3449;48.728;8.968;2023-04-22T08:34:11;2.80;;;2.60;;
6821;SDS011;3449;48.728;8.968;2023-04-22T08:36:38;3.50;;;2.77;;
6821;SDS011;3449;48.728;8.968;2023-04-22T08:39:05;4.37;;;2.43;;
6821;SDS011;3449;48.728;8.968;2023-04-22T08:41:33;2.90;;;2.53;;
6821;SDS011;3449;48.728;8.968;2023-04-22T08:44:00;2.67;;;2.47;;
6821;SDS011;3449;48.728;8.968;2023-04-22T08:46:27;2.57;;;2.37;;
6821;SDS011;3449;48.728;8.968;2023-04-22T08:48:55;2.73;;;2.50;;
6821;SDS011;3449;48.728;8.968;2023-04-22T08:51:28;2.43;;;2.13;;
6821;SDS011;3449;48.728;8.968;2023-04-22T08:53:57;6.73;;;1.97;;
6821;SDS011;3449;48.728;8.968;2023-04-22T08:56:24;2.50;;;2.27;;
6821;SDS011;3449;48.728;8.968;2023-04-22T08:58:53;3.00;;;2.10;;
6821;SDS011;3449;48.728;8.968;2023-04-22T09:01:21;1.93;;;1.80;;
6821;SDS011;3449;48.728;8.968;2023-04-22T09:03:49;2.10;;;1.43;;
6821;SDS011;3449;48.728;8.968;2023-04-22T09:06:17;1.60;;;1.50;;
6821;SDS011;3449;48.728;8.968;2023-04-22T09:08:47;2.40;;;2.07;;
6821;SDS011;3449;48.728;8.968;2023-04-22T09:11:14;1.27;;;1.17;;
6821;SDS011;3449;48.728;8.968;2023-04-22T09:13:42;5.90;;;1.47;;
6821;SDS011;3449;48.728;8.968;2023-04-22T09:16:09;3.47;;;1.40;;
6821;SDS011;3449;48.728;8.968;2023-04-22T09:18:39;1.93;;;1.47;;
6821;SDS011;3449;48.728;8.968;2023-04-22T09:21:06;1.40;;;1.30;;
6821;SDS011;3449;48.728;8.968;2023-04-22T09:23:42;1.40;;;1.30;;
6821;SDS011;3449;48.728;8.968;2023-04-22T09:26:12;3.50;;;1.80;;
6821;SDS011;3449;48.728;8.968;2023-04-22T09:28:46;1.57;;;1.47;;
6821;SDS011;3449;48.728;8.968;2023-04-22T09:31:14;1.30;;;1.20;;
6821;SDS011;3449;48.728;8.968;2023-04-22T09:33:45;3.33;;;1.57;;
6821;SDS011;3449;48.728;8.968;2023-04-22T09:36:13;5.73;;;1.37;;
6821;SDS011;3449;48.728;8.968;2023-04-22T09:38:49;1.73;;;1.20;;
6821;SDS011;3449;48.728;8.968;2023-04-22T09:41:18;1.50;;;1.40;;
6821;SDS011;3449;48.728;8.968;2023-04-22T09:43:53;2.73;;;1.30;;
6821;SDS011;3449;48.728;8.968;2023-04-22T09:46:21;2.33;;;1.63;;
6821;SDS011;3449;48.728;8.968;2023-04-22T09:48:49;1.50;;;1.40;;
6821;SDS011;3449;48.728;8.968;2023-04-22T09:51:17;2.07;;;1.37;;
6821;SDS011;3449;48.728;8.968;2023-04-22T09:53:44;1.17;;;1.07;;
6821;SDS011;3449;48.728;8.968;2023-04-22T09:59:20;1.60;;;1.50;;
6821;SDS011;3449;48.728;8.968;2023-04-22T10:01:49;1.13;;;1.03;;
6821;SDS011;3449;48.728;8.968;2023-04-22T10:04:17;1.13;;;1.10;;
6821;SDS011;3449;48.728;8.968;2023-04-22T10:06:47;2.50;;;1.30;;
6821;SDS011;3449;48.728;8.968;2023-04-22T10:09:14;1.27;;;1.10;;
6821;SDS011;3449;48.728;8.968;2023-04-22T10:11:44;2.00;;;1.20;;
6821;SDS011;3449;48.728;8.968;2023-04-22T10:14:11;2.13;;;1.27;;
6821;SDS011;3449;48.728;8.968;2023-04-22T10:16:41;1.63;;;1.03;;
6821;SDS011;3449;48.728;8.968;2023-04-22T10:19:12;0.90;;;0.90;;
6821;SDS011;3449;48.728;8.968;2023-04-22T10:21:42;2.20;;;1.33;;
6821;SDS011;3449;48.728;8.968;2023-04-22T10:24:13;3.53;;;1.13;;
6821;SDS011;3449;48.728;8.968;2023-04-22T10:26:42;1.00;;;0.87;;
6821;SDS011;3449;48.728;8.968;2023-04-22T10:29:15;1.33;;;1.10;;
6821;SDS011;3449;48.728;8.968;2023-04-22T10:31:50;2.90;;;1.43;;
6821;SDS011;3449;48.728;8.968;2023-04-22T10:34:19;0.90;;;0.90;;
6821;SDS011;3449;48.728;8.968;2023-04-22T10:36:52;0.97;;;0.97;;
6821;SDS011;3449;48.728;8.968;2023-04-22T10:39:20;2.07;;;1.33;;
6821;SDS011;3449;48.728;8.968;2023-04-22T10:42:03;2.87;;;1.33;;
6821;SDS011;3449;48.728;8.968;2023-04-22T10:44:49;1.33;;;1.10;;
6821;SDS011;3449;48.728;8.968;2023-04-22T10:47:28;4.03;;;1.80;;
6821;SDS011;3449;48.728;8.968;2023-04-22T10:50:09;3.27;;;1.47;;
6821;SDS011;3449;48.728;8.968;2023-04-22T10:52:49;1.83;;;1.00;;
6821;SDS011;3449;48.728;8.968;2023-04-22T10:55:16;4.83;;;1.20;;
6821;SDS011;3449;48.728;8.968;2023-04-22T10:57:45;1.90;;;0.90;;
6821;SDS011;3449;48.728;8.968;2023-04-22T11:00:23;3.00;;;1.60;;
6821;SDS011;3449;48.728;8.968;2023-04-22T11:03:07;1.83;;;1.00;;
6821;SDS011;3449;48.728;8.968;2023-04-22T11:05:35;6.70;;;1.60;;
6821;SDS011;3449;48.728;8.968;2023-04-22T11:08:04;1.00;;;0.90;;
6821;SDS011;3449;48.728;8.968;2023-04-22T11:10:36;1.30;;;1.20;;
6821;SDS011;3449;48.728;8.968;2023-04-22T11:13:07;1.43;;;1.10;;
6821;SDS011;3449;48.728;8.968;2023-04-22T11:15:37;3.93;;;1.27;;
6821;SDS011;3449;48.728;8.968;2023-04-22T11:18:09;1.03;;;0.93;;
6821;SDS011;3449;48.728;8.968;2023-04-22T11:20:39;1.40;;;1.10;;
6821;SDS011;3449;48.728;8.968;2023-04-22T11:23:06;1.43;;;1.33;;
6821;SDS011;3449;48.728;8.968;2023-04-22T11:25:33;3.60;;;1.33;;
6821;SDS011;3449;48.728;8.968;2023-04-22T11:28:00;1.63;;;1.17;;
6821;SDS011;3449;48.728;8.968;2023-04-22T11:30:27;1.60;;;1.40;;
6821;SDS011;3449;48.728;8.968;2023-04-22T11:32:56;2.57;;;1.43;;
6821;SDS011;3449;48.728;8.968;2023-04-22T11:35:26;1.37;;;1.10;;
6821;SDS011;3449;48.728;8.968;2023-04-22T11:37:55;1.47;;;1.27;;
6821;SDS011;3449;48.728;8.968;2023-04-22T11:40:24;2.17;;;1.50;;
6821;SDS011;3449;48.728;8.968;2023-04-22T11:42:52;11.97;;;1.50;;
6821;SDS011;3449;48.728;8.968;2023-04-22T11:45:20;6.43;;;1.33;;
6821;SDS011;3449;48.728;8.968;2023-04-22T11:47:47;4.33;;;1.47;;
6821;SDS011;3449;48.728;8.968;2023-04-22T11:50:15;1.67;;;1.30;;
6821;SDS011;3449;48.728;8.968;2023-04-22T11:52:46;1.80;;;1.20;;
6821;SDS011;3449;48.728;8.968;2023-04-22T11:55:15;2.97;;;1.60;;
6821;SDS011;3449;48.728;8.968;2023-04-22T11:57:45;3.37;;;1.43;;
6821;SDS011;3449;48.728;8.968;2023-04-22T12:00:18;2.80;;;1.30;;
6821;SDS011;3449;48.728;8.968;2023-04-22T12:02:53;2.27;;;1.20;;
6821;SDS011;3449;48.728;8.968;2023-04-22T12:05:23;4.60;;;1.80;;
6821;SDS011;3449;48.728;8.968;2023-04-22T12:08:00;1.57;;;1.10;;
6821;SDS011;3449;48.728;8.968;2023-04-22T12:10:27;1.30;;;1.20;;
6821;SDS011;3449;48.728;8.968;2023-04-22T12:12:54;3.07;;;1.10;;
6821;SDS011;3449;48.728;8.968;2023-04-22T12:15:21;1.73;;;1.17;;
6821;SDS011;3449;48.728;8.968;2023-04-22T12:17:49;3.40;;;1.87;;
6821;SDS011;3449;48.728;8.968;2023-04-22T12:20:16;2.53;;;1.60;;
6821;SDS011;3449;48.728;8.968;2023-04-22T12:22:43;2.90;;;1.80;;
6821;SDS011;3449;48.728;8.968;2023-04-22T12:25:16;14.20;;;1.93;;
6821;SDS011;3449;48.728;8.968;2023-04-22T12:27:43;2.27;;;1.10;;
6821;SDS011;3449;48.728;8.968;2023-04-22T12:30:10;1.03;;;0.97;;
6821;SDS011;3449;48.728;8.968;2023-04-22T12:32:39;3.80;;;1.63;;
6821;SDS011;3449;48.728;8.968;2023-04-22T12:35:06;2.43;;;1.43;;
6821;SDS011;3449;48.728;8.968;2023-04-22T12:37:33;4.20;;;1.27;;
6821;SDS011;3449;48.728;8.968;2023-04-22T12:40:00;5.40;;;1.43;;
6821;SDS011;3449;48.728;8.968;2023-04-22T12:42:29;4.43;;;1.33;;
6821;SDS011;3449;48.728;8.968;2023-04-22T12:44:56;1.40;;;1.30;;
6821;SDS011;3449;48.728;8.968;2023-04-22T12:47:23;4.13;;;1.60;;
6821;SDS011;3449;48.728;8.968;2023-04-22T12:49:50;2.90;;;1.43;;
6821;SDS011;3449;48.728;8.968;2023-04-22T12:52:17;4.13;;;1.40;;
6821;SDS011;3449;48.728;8.968;2023-04-22T12:54:44;1.30;;;1.20;;
6821;SDS011;3449;48.728;8.968;2023-04-22T12:57:11;1.40;;;1.17;;
6821;SDS011;3449;48.728;8.968;2023-04-22T12:59:39;1.47;;;1.13;;
6821;SDS011;3449;48.728;8.968;2023-04-22T13:02:06;1.07;;;1.07;;
6821;SDS011;3449;48.728;8.968;2023-04-22T13:04:33;1.30;;;1.03;;
6821;SDS011;3449;48.728;8.968;2023-04-22T13:07:00;1.00;;;0.87;;
6821;SDS011;3449;48.728;8.968;2023-04-22T13:09:27;2.60;;;1.13;;
6821;SDS011;3449;48.728;8.968;2023-04-22T13:11:54;1.13;;;1.00;;
6821;SDS011;3449;48.728;8.968;2023-04-22T13:14:20;1.90;;;1.80;;
6821;SDS011;3449;48.728;8.968;2023-04-22T13:16:49;1.27;;;1.17;;
6821;SDS011;3449;48.728;8.968;2023-04-22T13:19:16;1.73;;;1.00;;
6821;SDS011;3449;48.728;8.968;2023-04-22T13:21:43;1.30;;;1.20;;
6821;SDS011;3449;48.728;8.968;2023-04-22T13:24:10;4.83;;;1.43;;
6821;SDS011;3449;48.728;8.968;2023-04-22T13:26:37;1.20;;;1.10;;
6821;SDS011;3449;48.728;8.968;2023-04-22T13:29:04;1.57;;;1.43;;
6821;SDS011;3449;48.728;8.968;2023-04-22T13:31:35;6.57;;;1.60;;
6821;SDS011;3449;48.728;8.968;2023-04-22T13:34:04;3.10;;;1.27;;
6821;SDS011;3449;48.728;8.968;2023-04-22T13:36:31;12.00;;;2.70;;
6821;SDS011;3449;48.728;8.968;2023-04-22T13:38:58;6.33;;;1.63;;
6821;SDS011;3449;48.728;8.968;2023-04-22T13:41:25;4.43;;;1.67;;
6821;SDS011;3449;48.728;8.968;2023-04-22T13:43:52;1.33;;;1.23;;
6821;SDS011;3449;48.728;8.968;2023-04-22T13:46:20;1.97;;;1.20;;
6821;SDS011;3449;48.728;8.968;2023-04-22T13:48:47;3.97;;;1.47;;
6821;SDS011;3449;48.728;8.968;2023-04-22T13:51:15;2.40;;;1.40;;
6821;SDS011;3449;48.728;8.968;2023-04-22T13:53:42;4.43;;;1.90;;
6821;SDS011;3449;48.728;8.968;2023-04-22T13:56:09;1.37;;;1.20;;
6821;SDS011;3449;48.728;8.968;2023-04-22T13:58:37;1.30;;;1.20;;
6821;SDS011;3449;48.728;8.968;2023-04-22T14:01:05;1.60;;;1.30;;
6821;SDS011;3449;48.728;8.968;2023-04-22T14:03:32;1.57;;;1.13;;
6821;SDS011;3449;48.728;8.968;2023-04-22T14:05:59;2.20;;;1.00;;
6821;SDS011;3449;48.728;8.968;2023-04-22T14:08:29;3.10;;;1.20;;
6821;SDS011;3449;48.728;8.968;2023-04-22T14:10:55;4.33;;;1.53;;
6821;SDS011;3449;48.728;8.968;2023-04-22T14:13:23;5.80;;;1.20;;
6821;SDS011;3449;48.728;8.968;2023-04-22T14:15:51;3.33;;;1.30;;
6821;SDS011;3449;48.728;8.968;2023-04-22T14:18:18;2.10;;;1.10;;
6821;SDS011;3449;48.728;8.968;2023-04-22T14:20:46;2.57;;;1.10;;
6821;SDS011;3449;48.728;8.968;2023-04-22T14:23:13;1.37;;;1.27;;
6821;SDS011;3449;48.728;8.968;2023-04-22T14:25:41;3.00;;;1.60;;
6821;SDS011;3449;48.728;8.968;2023-04-22T14:28:10;1.63;;;1.53;;
6821;SDS011;3449;48.728;8.968;2023-04-22T14:30:37;3.13;;;1.53;;
6821;SDS011;3449;48.728;8.968;2023-04-22T14:33:04;1.83;;;1.20;;
6821;SDS011;3449;48.728;8.968;2023-04-22T14:35:31;2.80;;;1.27;;
6821;SDS011;3449;48.728;8.968;2023-04-22T14:37:58;2.53;;;1.33;;
6821;SDS011;3449;48.728;8.968;2023-04-22T14:40:25;2.07;;;1.50;;
6821;SDS011;3449;48.728;8.968;2023-04-22T14:42:55;2.50;;;1.20;;
6821;SDS011;3449;48.728;8.968;2023-04-22T14:45:23;5.40;;;1.80;;
6821;SDS011;3449;48.728;8.968;2023-04-22T14:47:52;2.50;;;1.50;;
6821;SDS011;3449;48.728;8.968;2023-04-22T14:50:19;1.00;;;0.90;;
6821;SDS011;3449;48.728;8.968;2023-04-22T14:52:46;1.23;;;1.13;;
6821;SDS011;3449;48.728;8.968;2023-04-22T14:55:13;1.53;;;1.43;;
6821;SDS011;3449;48.728;8.968;2023-04-22T14:57:40;2.70;;;1.63;;
6821;SDS011;3449;48.728;8.968;2023-04-22T15:00:09;2.03;;;1.37;;
6821;SDS011;3449;48.728;8.968;2023-04-22T15:02:36;2.50;;;1.60;;
6821;SDS011;3449;48.728;8.968;2023-04-22T15:05:03;1.80;;;1.60;;
6821;SDS011;3449;48.728;8.968;2023-04-22T15:07:30;1.40;;;1.30;;
6821;SDS011;3449;48.728;8.968;2023-04-22T15:09:57;4.40;;;2.00;;
6821;SDS011;3449;48.728;8.968;2023-04-22T15:12:24;2.07;;;1.57;;
6821;SDS011;3449;48.728;8.968;2023-04-22T15:14:51;3.37;;;1.47;;
6821;SDS011;3449;48.728;8.968;2023-04-22T15:17:20;1.63;;;1.53;;
6821;SDS011;3449;48.728;8.968;2023-04-22T15:19:47;4.30;;;1.47;;
6821;SDS011;3449;48.728;8.968;2023-04-22T15:22:17;1.70;;;1.57;;